sensor_id;sensor_type;location;lat;lon;timestamp;P1;durP1;ratioP1;P2;durP2;ratioP2
44098;SDS011;29762;50.086;14.364;2022-08-19T00:00:46;2.53;;;2.33;;
44098;SDS011;29762;50.086;14.364;2022-08-19T00:06:05;2.72;;;2.40;;
44098;SDS011;29762;50.086;14.364;2022-08-19T00:11:24;2.88;;;2.67;;
44098;SDS011;29762;50.086;14.364;2022-08-19T00:16:45;2.53;;;2.33;;
44098;SDS011;29762;50.086;14.364;2022-08-19T00:22:06;2.60;;;2.40;;
44098;SDS011;29762;50.086;14.364;2022-08-19T00:27:27;2.55;;;2.35;;
44098;SDS011;29762;50.086;14.364;2022-08-19T00:32:47;2.97;;;2.53;;
44098;SDS011;29762;50.086;14.364;2022-08-19T00:38:06;2.85;;;2.53;;
44098;SDS011;29762;50.086;14.364;2022-08-19T00:43:26;2.40;;;2.20;;
44098;SDS011;29762;50.086;14.364;2022-08-19T00:48:45;2.22;;;2.03;;
44098;SDS011;29762;50.086;14.364;2022-08-19T00:54:05;2.40;;;2.20;;
44098;SDS011;29762;50.086;14.364;2022-08-19T00:59:24;2.67;;;2.47;;
44098;SDS011;29762;50.086;14.364;2022-08-19T01:04:44;2.55;;;2.28;;
44098;SDS011;29762;50.086;14.364;2022-08-19T01:10:05;2.55;;;2.35;;
44098;SDS011;29762;50.086;14.364;2022-08-19T01:15:29;2.50;;;2.30;;
44098;SDS011;29762;50.086;14.364;2022-08-19T01:20:51;2.40;;;2.20;;
44098;SDS011;29762;50.086;14.364;2022-08-19T01:26:15;2.50;;;2.30;;
44098;SDS011;29762;50.086;14.364;2022-08-19T01:31:36;2.67;;;2.47;;
44098;SDS011;29762;50.086;14.364;2022-08-19T01:36:58;2.65;;;2.35;;
44098;SDS011;29762;50.086;14.364;2022-08-19T01:42:17;2.55;;;2.35;;
44098;SDS011;29762;50.086;14.364;2022-08-19T01:47:37;2.83;;;2.50;;
44098;SDS011;29762;50.086;14.364;2022-08-19T01:52:57;2.80;;;2.55;;
44098;SDS011;29762;50.086;14.364;2022-08-19T01:58:19;2.60;;;2.40;;
44098;SDS011;29762;50.086;14.364;2022-08-19T02:03:44;2.95;;;2.55;;
44098;SDS011;29762;50.086;14.364;2022-08-19T02:09:04;2.80;;;2.55;;
44098;SDS011;29762;50.086;14.364;2022-08-19T02:14:24;2.80;;;2.60;;
44098;SDS011;29762;50.086;14.364;2022-08-19T02:19:44;2.70;;;2.50;;
44098;SDS011;29762;50.086;14.364;2022-08-19T02:25:03;2.90;;;2.60;;
44098;SDS011;29762;50.086;14.364;2022-08-19T02:30:24;2.72;;;2.42;;
44098;SDS011;29762;50.086;14.364;2022-08-19T02:35:45;3.45;;;2.50;;
44098;SDS011;29762;50.086;14.364;2022-08-19T02:41:11;2.90;;;2.70;;
44098;SDS011;29762;50.086;14.364;2022-08-19T02:46:35;2.72;;;2.45;;
44098;SDS011;29762;50.086;14.364;2022-08-19T02:51:55;3.40;;;2.70;;
44098;SDS011;29762;50.086;14.364;2022-08-19T02:57:14;3.05;;;2.78;;
44098;SDS011;29762;50.086;14.364;2022-08-19T03:02:34;2.70;;;2.50;;
44098;SDS011;29762;50.086;14.364;2022-08-19T03:07:53;2.50;;;2.30;;
44098;SDS011;29762;50.086;14.364;2022-08-19T03:13:13;3.10;;;2.80;;
44098;SDS011;29762;50.086;14.364;2022-08-19T03:18:35;2.88;;;2.67;;
44098;SDS011;29762;50.086;14.364;2022-08-19T03:23:55;2.58;;;2.38;;
44098;SDS011;29762;50.086;14.364;2022-08-19T03:29:15;2.88;;;2.58;;
44098;SDS011;29762;50.086;14.364;2022-08-19T03:34:36;2.97;;;2.70;;
44098;SDS011;29762;50.086;14.364;2022-08-19T03:39:56;2.60;;;2.40;;
44098;SDS011;29762;50.086;14.364;2022-08-19T03:45:15;2.72;;;2.53;;
44098;SDS011;29762;50.086;14.364;2022-08-19T03:50:39;2.83;;;2.63;;
44098;SDS011;29762;50.086;14.364;2022-08-19T03:55:58;2.85;;;2.65;;
44098;SDS011;29762;50.086;14.364;2022-08-19T04:01:20;3.58;;;2.90;;
44098;SDS011;29762;50.086;14.364;2022-08-19T04:06:41;3.38;;;3.08;;
44098;SDS011;29762;50.086;14.364;2022-08-19T04:12:02;3.05;;;2.72;;
44098;SDS011;29762;50.086;14.364;2022-08-19T04:17:24;8.27;;;7.40;;
44098;SDS011;29762;50.086;14.364;2022-08-19T04:22:44;8.88;;;7.88;;
44098;SDS011;29762;50.086;14.364;2022-08-19T04:28:03;8.80;;;8.00;;
44098;SDS011;29762;50.086;14.364;2022-08-19T04:33:24;9.90;;;8.68;;
44098;SDS011;29762;50.086;14.364;2022-08-19T04:38:43;9.45;;;8.48;;
44098;SDS011;29762;50.086;14.364;2022-08-19T04:44:03;9.65;;;8.52;;
44098;SDS011;29762;50.086;14.364;2022-08-19T04:49:23;10.05;;;9.13;;
44098;SDS011;29762;50.086;14.364;2022-08-19T04:54:43;8.85;;;8.00;;
44098;SDS011;29762;50.086;14.364;2022-08-19T05:00:02;10.02;;;8.55;;
44098;SDS011;29762;50.086;14.364;2022-08-19T05:05:22;8.98;;;7.85;;
44098;SDS011;29762;50.086;14.364;2022-08-19T05:10:41;9.13;;;8.32;;
44098;SDS011;29762;50.086;14.364;2022-08-19T05:16:01;9.07;;;8.13;;
44098;SDS011;29762;50.086;14.364;2022-08-19T05:21:20;9.20;;;8.30;;
44098;SDS011;29762;50.086;14.364;2022-08-19T05:26:59;9.18;;;8.18;;
44098;SDS011;29762;50.086;14.364;2022-08-19T05:32:18;9.52;;;8.30;;
44098;SDS011;29762;50.086;14.364;2022-08-19T05:37:39;9.13;;;8.00;;
44098;SDS011;29762;50.086;14.364;2022-08-19T05:43:02;8.65;;;7.78;;
44098;SDS011;29762;50.086;14.364;2022-08-19T05:48:25;9.70;;;8.70;;
44098;SDS011;29762;50.086;14.364;2022-08-19T05:53:45;9.00;;;8.10;;
44098;SDS011;29762;50.086;14.364;2022-08-19T05:59:05;8.48;;;7.78;;
44098;SDS011;29762;50.086;14.364;2022-08-19T06:04:28;9.18;;;8.30;;
44098;SDS011;29762;50.086;14.364;2022-08-19T06:09:47;10.52;;;9.40;;
44098;SDS011;29762;50.086;14.364;2022-08-19T06:15:11;9.95;;;9.05;;
44098;SDS011;29762;50.086;14.364;2022-08-19T06:20:32;11.23;;;9.88;;
44098;SDS011;29762;50.086;14.364;2022-08-19T06:25:51;9.95;;;8.98;;
44098;SDS011;29762;50.086;14.364;2022-08-19T06:31:10;9.60;;;8.63;;
44098;SDS011;29762;50.086;14.364;2022-08-19T06:36:34;8.77;;;7.90;;
44098;SDS011;29762;50.086;14.364;2022-08-19T06:41:57;8.80;;;7.93;;
44098;SDS011;29762;50.086;14.364;2022-08-19T06:47:22;9.00;;;8.20;;
44098;SDS011;29762;50.086;14.364;2022-08-19T06:52:41;8.15;;;7.40;;
44098;SDS011;29762;50.086;14.364;2022-08-19T06:58:01;8.80;;;8.05;;
44098;SDS011;29762;50.086;14.364;2022-08-19T07:03:22;8.70;;;7.63;;
44098;SDS011;29762;50.086;14.364;2022-08-19T07:08:41;8.43;;;7.72;;
44098;SDS011;29762;50.086;14.364;2022-08-19T07:14:01;9.60;;;8.63;;
44098;SDS011;29762;50.086;14.364;2022-08-19T07:19:21;8.50;;;7.70;;
44098;SDS011;29762;50.086;14.364;2022-08-19T07:24:42;8.20;;;7.50;;
44098;SDS011;29762;50.086;14.364;2022-08-19T07:30:01;10.38;;;7.97;;
44098;SDS011;29762;50.086;14.364;2022-08-19T07:35:22;9.68;;;8.23;;
44098;SDS011;29762;50.086;14.364;2022-08-19T07:40:43;9.25;;;8.45;;
44098;SDS011;29762;50.086;14.364;2022-08-19T07:46:05;8.93;;;8.13;;
44098;SDS011;29762;50.086;14.364;2022-08-19T07:51:25;9.73;;;8.82;;
44098;SDS011;29762;50.086;14.364;2022-08-19T07:56:45;9.98;;;9.07;;
44098;SDS011;29762;50.086;14.364;2022-08-19T08:02:05;9.85;;;8.95;;
44098;SDS011;29762;50.086;14.364;2022-08-19T08:07:25;10.32;;;8.77;;
44098;SDS011;29762;50.086;14.364;2022-08-19T08:13:03;10.00;;;9.00;;
44098;SDS011;29762;50.086;14.364;2022-08-19T08:18:24;10.18;;;9.25;;
44098;SDS011;29762;50.086;14.364;2022-08-19T08:23:44;10.43;;;9.48;;
44098;SDS011;29762;50.086;14.364;2022-08-19T08:29:03;10.48;;;9.48;;
44098;SDS011;29762;50.086;14.364;2022-08-19T08:34:23;11.00;;;10.00;;
44098;SDS011;29762;50.086;14.364;2022-08-19T08:39:43;10.27;;;9.32;;
44098;SDS011;29762;50.086;14.364;2022-08-19T08:45:04;9.95;;;9.13;;
44098;SDS011;29762;50.086;14.364;2022-08-19T08:50:33;11.25;;;10.20;;
44098;SDS011;29762;50.086;14.364;2022-08-19T08:55:56;10.95;;;9.95;;
44098;SDS011;29762;50.086;14.364;2022-08-19T09:01:16;10.60;;;9.65;;
44098;SDS011;29762;50.086;14.364;2022-08-19T09:12:26;10.43;;;9.43;;
44098;SDS011;29762;50.086;14.364;2022-08-19T09:17:51;10.50;;;9.55;;
44098;SDS011;29762;50.086;14.364;2022-08-19T09:23:10;10.48;;;9.65;;
44098;SDS011;29762;50.086;14.364;2022-08-19T09:28:30;10.98;;;9.98;;
44098;SDS011;29762;50.086;14.364;2022-08-19T09:33:50;10.80;;;9.80;;
44098;SDS011;29762;50.086;14.364;2022-08-19T09:39:11;10.43;;;9.52;;
44098;SDS011;29762;50.086;14.364;2022-08-19T09:44:30;10.68;;;9.73;;
44098;SDS011;29762;50.086;14.364;2022-08-19T09:49:49;10.43;;;9.52;;
44098;SDS011;29762;50.086;14.364;2022-08-19T09:55:09;10.88;;;9.93;;
44098;SDS011;29762;50.086;14.364;2022-08-19T10:00:29;10.75;;;9.77;;
44098;SDS011;29762;50.086;14.364;2022-08-19T10:05:50;10.60;;;9.70;;
44098;SDS011;29762;50.086;14.364;2022-08-19T10:11:09;10.88;;;9.77;;
44098;SDS011;29762;50.086;14.364;2022-08-19T10:16:29;10.45;;;9.57;;
44098;SDS011;29762;50.086;14.364;2022-08-19T10:21:48;10.23;;;9.43;;
44098;SDS011;29762;50.086;14.364;2022-08-19T10:27:08;11.23;;;10.18;;
44098;SDS011;29762;50.086;14.364;2022-08-19T10:32:28;10.88;;;9.90;;
44098;SDS011;29762;50.086;14.364;2022-08-19T10:37:48;10.52;;;9.63;;
44098;SDS011;29762;50.086;14.364;2022-08-19T10:43:07;10.98;;;9.98;;
44098;SDS011;29762;50.086;14.364;2022-08-19T10:48:27;10.68;;;9.75;;
44098;SDS011;29762;50.086;14.364;2022-08-19T10:53:46;10.50;;;9.50;;
44098;SDS011;29762;50.086;14.364;2022-08-19T10:59:05;10.70;;;9.80;;
44098;SDS011;29762;50.086;14.364;2022-08-19T11:04:25;10.75;;;9.85;;
44098;SDS011;29762;50.086;14.364;2022-08-19T11:09:45;10.45;;;9.57;;
44098;SDS011;29762;50.086;14.364;2022-08-19T11:15:06;9.98;;;9.07;;
44098;SDS011;29762;50.086;14.364;2022-08-19T11:20:27;10.38;;;9.45;;
44098;SDS011;29762;50.086;14.364;2022-08-19T11:25:46;11.15;;;9.95;;
44098;SDS011;29762;50.086;14.364;2022-08-19T11:31:09;9.85;;;8.95;;
44098;SDS011;29762;50.086;14.364;2022-08-19T11:36:33;12.57;;;9.87;;
44098;SDS011;29762;50.086;14.364;2022-08-19T11:41:54;11.23;;;10.13;;
44098;SDS011;29762;50.086;14.364;2022-08-19T11:47:14;12.10;;;9.85;;
44098;SDS011;29762;50.086;14.364;2022-08-19T11:52:34;12.32;;;9.93;;
44098;SDS011;29762;50.086;14.364;2022-08-19T11:57:53;11.07;;;9.93;;
44098;SDS011;29762;50.086;14.364;2022-08-19T12:03:13;10.25;;;9.25;;
44098;SDS011;29762;50.086;14.364;2022-08-19T12:08:33;9.82;;;8.93;;
44098;SDS011;29762;50.086;14.364;2022-08-19T12:13:53;8.52;;;7.80;;
44098;SDS011;29762;50.086;14.364;2022-08-19T12:19:13;8.88;;;8.07;;
44098;SDS011;29762;50.086;14.364;2022-08-19T12:24:32;9.48;;;8.48;;
44098;SDS011;29762;50.086;14.364;2022-08-19T12:29:53;8.90;;;7.97;;
44098;SDS011;29762;50.086;14.364;2022-08-19T12:35:12;8.48;;;7.65;;
44098;SDS011;29762;50.086;14.364;2022-08-19T12:40:31;8.75;;;7.85;;
44098;SDS011;29762;50.086;14.364;2022-08-19T12:45:50;8.43;;;7.65;;
44098;SDS011;29762;50.086;14.364;2022-08-19T12:51:11;11.70;;;7.90;;
44098;SDS011;29762;50.086;14.364;2022-08-19T12:56:32;8.50;;;7.70;;
44098;SDS011;29762;50.086;14.364;2022-08-19T13:01:52;8.15;;;7.47;;
44098;SDS011;29762;50.086;14.364;2022-08-19T13:07:11;8.05;;;7.38;;
44098;SDS011;29762;50.086;14.364;2022-08-19T13:12:31;7.68;;;7.03;;
44098;SDS011;29762;50.086;14.364;2022-08-19T13:17:51;7.38;;;6.78;;
44098;SDS011;29762;50.086;14.364;2022-08-19T13:23:12;7.68;;;7.00;;
44098;SDS011;29762;50.086;14.364;2022-08-19T13:28:32;7.38;;;6.70;;
44098;SDS011;29762;50.086;14.364;2022-08-19T13:34:11;7.60;;;6.90;;
44098;SDS011;29762;50.086;14.364;2022-08-19T13:39:31;7.53;;;6.82;;
44098;SDS011;29762;50.086;14.364;2022-08-19T13:44:53;7.43;;;6.82;;
44098;SDS011;29762;50.086;14.364;2022-08-19T13:50:14;7.32;;;6.72;;
44098;SDS011;29762;50.086;14.364;2022-08-19T13:55:36;7.30;;;6.70;;
44098;SDS011;29762;50.086;14.364;2022-08-19T14:00:57;7.30;;;6.60;;
44098;SDS011;29762;50.086;14.364;2022-08-19T14:06:18;7.45;;;6.72;;
44098;SDS011;29762;50.086;14.364;2022-08-19T14:11:38;7.22;;;6.55;;
44098;SDS011;29762;50.086;14.364;2022-08-19T14:16:58;7.60;;;6.90;;
44098;SDS011;29762;50.086;14.364;2022-08-19T14:22:18;7.55;;;6.78;;
44098;SDS011;29762;50.086;14.364;2022-08-19T14:27:38;7.65;;;6.95;;
44098;SDS011;29762;50.086;14.364;2022-08-19T14:32:59;8.63;;;6.47;;
44098;SDS011;29762;50.086;14.364;2022-08-19T14:38:19;7.82;;;6.47;;
44098;SDS011;29762;50.086;14.364;2022-08-19T14:43:39;7.68;;;6.93;;
44098;SDS011;29762;50.086;14.364;2022-08-19T14:48:58;8.52;;;7.18;;
44098;SDS011;29762;50.086;14.364;2022-08-19T14:54:18;7.82;;;7.03;;
44098;SDS011;29762;50.086;14.364;2022-08-19T14:59:37;7.95;;;7.15;;
44098;SDS011;29762;50.086;14.364;2022-08-19T15:04:57;8.25;;;7.45;;
44098;SDS011;29762;50.086;14.364;2022-08-19T15:10:17;10.35;;;7.75;;
44098;SDS011;29762;50.086;14.364;2022-08-19T15:15:36;8.98;;;7.25;;
44098;SDS011;29762;50.086;14.364;2022-08-19T15:20:58;10.82;;;7.95;;
44098;SDS011;29762;50.086;14.364;2022-08-19T15:26:18;11.35;;;7.00;;
44098;SDS011;29762;50.086;14.364;2022-08-19T15:31:38;13.27;;;8.25;;
44098;SDS011;29762;50.086;14.364;2022-08-19T15:36:57;14.43;;;7.90;;
44098;SDS011;29762;50.086;14.364;2022-08-19T15:42:18;12.15;;;8.65;;
44098;SDS011;29762;50.086;14.364;2022-08-19T15:47:39;11.95;;;8.13;;
44098;SDS011;29762;50.086;14.364;2022-08-19T15:53:00;11.30;;;7.90;;
44098;SDS011;29762;50.086;14.364;2022-08-19T15:58:22;12.38;;;7.90;;
44098;SDS011;29762;50.086;14.364;2022-08-19T16:04:00;11.82;;;7.75;;
44098;SDS011;29762;50.086;14.364;2022-08-19T16:09:38;10.30;;;7.93;;
44098;SDS011;29762;50.086;14.364;2022-08-19T16:14:58;10.13;;;7.70;;
44098;SDS011;29762;50.086;14.364;2022-08-19T16:20:18;9.73;;;7.43;;
44098;SDS011;29762;50.086;14.364;2022-08-19T16:25:39;10.30;;;7.78;;
44098;SDS011;29762;50.086;14.364;2022-08-19T16:30:59;10.30;;;7.30;;
44098;SDS011;29762;50.086;14.364;2022-08-19T16:36:18;18.40;;;9.30;;
44098;SDS011;29762;50.086;14.364;2022-08-19T16:41:38;27.35;;;11.40;;
44098;SDS011;29762;50.086;14.364;2022-08-19T16:46:58;26.92;;;10.82;;
44098;SDS011;29762;50.086;14.364;2022-08-19T16:52:18;18.88;;;10.43;;
44098;SDS011;29762;50.086;14.364;2022-08-19T16:57:38;24.48;;;10.95;;
44098;SDS011;29762;50.086;14.364;2022-08-19T17:03:07;19.77;;;10.93;;
44098;SDS011;29762;50.086;14.364;2022-08-19T17:08:29;24.95;;;12.00;;
44098;SDS011;29762;50.086;14.364;2022-08-19T17:13:50;20.33;;;12.75;;
44098;SDS011;29762;50.086;14.364;2022-08-19T17:19:09;19.23;;;13.00;;
44098;SDS011;29762;50.086;14.364;2022-08-19T17:24:28;19.70;;;12.98;;
44098;SDS011;29762;50.086;14.364;2022-08-19T17:29:48;21.48;;;13.40;;
44098;SDS011;29762;50.086;14.364;2022-08-19T17:35:07;16.08;;;13.77;;
44098;SDS011;29762;50.086;14.364;2022-08-19T17:40:27;14.57;;;13.07;;
44098;SDS011;29762;50.086;14.364;2022-08-19T17:45:46;15.27;;;13.57;;
44098;SDS011;29762;50.086;14.364;2022-08-19T17:51:13;13.70;;;12.40;;
44098;SDS011;29762;50.086;14.364;2022-08-19T17:56:36;12.63;;;11.38;;
44098;SDS011;29762;50.086;14.364;2022-08-19T18:01:55;12.50;;;11.23;;
44098;SDS011;29762;50.086;14.364;2022-08-19T18:07:15;12.30;;;10.77;;
44098;SDS011;29762;50.086;14.364;2022-08-19T18:12:35;14.45;;;11.25;;
44098;SDS011;29762;50.086;14.364;2022-08-19T18:17:55;12.75;;;11.40;;
44098;SDS011;29762;50.086;14.364;2022-08-19T18:23:15;12.10;;;10.60;;
44098;SDS011;29762;50.086;14.364;2022-08-19T18:28:34;12.18;;;10.43;;
44098;SDS011;29762;50.086;14.364;2022-08-19T18:33:54;11.73;;;10.05;;
44098;SDS011;29762;50.086;14.364;2022-08-19T18:39:14;11.15;;;10.07;;
44098;SDS011;29762;50.086;14.364;2022-08-19T18:44:52;11.43;;;10.23;;
44098;SDS011;29762;50.086;14.364;2022-08-19T18:50:30;11.77;;;10.50;;
44098;SDS011;29762;50.086;14.364;2022-08-19T18:55:50;10.88;;;9.77;;
44098;SDS011;29762;50.086;14.364;2022-08-19T19:13:56;12.35;;;8.48;;
44098;SDS011;29762;50.086;14.364;2022-08-19T19:19:17;10.05;;;8.15;;
44098;SDS011;29762;50.086;14.364;2022-08-19T19:24:37;10.40;;;7.72;;
44098;SDS011;29762;50.086;14.364;2022-08-19T19:29:58;9.68;;;7.47;;
44098;SDS011;29762;50.086;14.364;2022-08-19T19:35:18;11.10;;;7.68;;
44098;SDS011;29762;50.086;14.364;2022-08-19T19:40:37;3.60;;;3.00;;
44098;SDS011;29762;50.086;14.364;2022-08-19T19:45:56;3.38;;;2.30;;
44098;SDS011;29762;50.086;14.364;2022-08-19T19:51:15;5.25;;;2.72;;
44098;SDS011;29762;50.086;14.364;2022-08-19T19:56:34;3.92;;;3.25;;
44098;SDS011;29762;50.086;14.364;2022-08-19T20:01:54;5.25;;;3.10;;
44098;SDS011;29762;50.086;14.364;2022-08-19T20:07:14;4.85;;;3.47;;
44098;SDS011;29762;50.086;14.364;2022-08-19T20:12:33;8.43;;;3.60;;
44098;SDS011;29762;50.086;14.364;2022-08-19T20:17:53;3.65;;;2.78;;
44098;SDS011;29762;50.086;14.364;2022-08-19T20:23:12;4.65;;;2.03;;
44098;SDS011;29762;50.086;14.364;2022-08-19T20:28:32;2.58;;;1.60;;
44098;SDS011;29762;50.086;14.364;2022-08-19T20:33:52;3.15;;;1.70;;
44098;SDS011;29762;50.086;14.364;2022-08-19T20:39:11;2.78;;;1.58;;
44098;SDS011;29762;50.086;14.364;2022-08-19T20:44:31;3.05;;;1.70;;
44098;SDS011;29762;50.086;14.364;2022-08-19T20:49:50;5.30;;;1.65;;
44098;SDS011;29762;50.086;14.364;2022-08-19T20:55:10;2.55;;;1.80;;
44098;SDS011;29762;50.086;14.364;2022-08-19T21:00:30;2.67;;;1.65;;
44098;SDS011;29762;50.086;14.364;2022-08-19T21:05:50;2.40;;;1.80;;
44098;SDS011;29762;50.086;14.364;2022-08-19T21:11:10;4.13;;;1.73;;
44098;SDS011;29762;50.086;14.364;2022-08-19T21:16:31;2.00;;;1.77;;
44098;SDS011;29762;50.086;14.364;2022-08-19T21:21:52;2.38;;;1.63;;
44098;SDS011;29762;50.086;14.364;2022-08-19T21:27:11;1.90;;;1.60;;
44098;SDS011;29762;50.086;14.364;2022-08-19T21:32:31;1.92;;;1.55;;
44098;SDS011;29762;50.086;14.364;2022-08-19T21:37:50;3.10;;;2.08;;
44098;SDS011;29762;50.086;14.364;2022-08-19T21:43:10;3.75;;;2.05;;
44098;SDS011;29762;50.086;14.364;2022-08-19T21:48:29;4.05;;;2.80;;
44098;SDS011;29762;50.086;14.364;2022-08-19T21:53:48;2.50;;;2.25;;
44098;SDS011;29762;50.086;14.364;2022-08-19T21:59:08;2.80;;;2.60;;
44098;SDS011;29762;50.086;14.364;2022-08-19T22:04:27;3.33;;;2.42;;
44098;SDS011;29762;50.086;14.364;2022-08-19T22:09:47;3.42;;;3.10;;
44098;SDS011;29762;50.086;14.364;2022-08-19T22:15:08;4.65;;;3.45;;
44098;SDS011;29762;50.086;14.364;2022-08-19T22:20:30;3.78;;;3.22;;
44098;SDS011;29762;50.086;14.364;2022-08-19T22:25:50;4.20;;;3.55;;
44098;SDS011;29762;50.086;14.364;2022-08-19T22:31:09;3.92;;;3.13;;
44098;SDS011;29762;50.086;14.364;2022-08-19T22:36:29;3.92;;;3.50;;
44098;SDS011;29762;50.086;14.364;2022-08-19T22:41:52;4.13;;;3.63;;
44098;SDS011;29762;50.086;14.364;2022-08-19T22:47:13;4.53;;;4.13;;
44098;SDS011;29762;50.086;14.364;2022-08-19T22:52:33;5.07;;;4.57;;
44098;SDS011;29762;50.086;14.364;2022-08-19T22:57:52;5.20;;;4.70;;
44098;SDS011;29762;50.086;14.364;2022-08-19T23:03:12;6.65;;;5.30;;
44098;SDS011;29762;50.086;14.364;2022-08-19T23:08:31;5.65;;;5.13;;
44098;SDS011;29762;50.086;14.364;2022-08-19T23:13:51;6.55;;;5.72;;
44098;SDS011;29762;50.086;14.364;2022-08-19T23:19:11;5.93;;;5.43;;
44098;SDS011;29762;50.086;14.364;2022-08-19T23:24:30;7.60;;;6.63;;
44098;SDS011;29762;50.086;14.364;2022-08-19T23:29:50;7.35;;;6.53;;
44098;SDS011;29762;50.086;14.364;2022-08-19T23:35:32;7.47;;;6.82;;
44098;SDS011;29762;50.086;14.364;2022-08-19T23:40:55;8.07;;;7.28;;
44098;SDS011;29762;50.086;14.364;2022-08-19T23:46:15;9.38;;;8.23;;
44098;SDS011;29762;50.086;14.364;2022-08-19T23:51:37;8.43;;;7.72;;
44098;SDS011;29762;50.086;14.364;2022-08-19T23:56:56;9.77;;;8.88;;
